createdAt,value
2018-12-20T00:00:45.916Z,5.60
2018-12-20T00:03:14.291Z,5.23
2018-12-20T00:05:42.682Z,7.13
2018-12-20T00:08:11.317Z,5.20
2018-12-20T00:10:39.884Z,8.20
2018-12-20T00:13:09.025Z,6.00
2018-12-20T00:15:37.428Z,4.87
2018-12-20T00:18:06.343Z,4.47
2018-12-20T00:20:34.801Z,5.97
2018-12-20T00:23:03.375Z,7.37
2018-12-20T00:25:31.883Z,7.60
2018-12-20T00:28:00.339Z,7.63
2018-12-20T00:30:28.887Z,7.23
2018-12-20T00:32:57.432Z,8.60
2018-12-20T00:35:25.824Z,10.03
2018-12-20T00:37:54.402Z,7.63
2018-12-20T00:40:22.803Z,7.93
2018-12-20T00:42:51.296Z,8.50
2018-12-20T00:45:19.758Z,8.40
2018-12-20T00:47:48.188Z,10.60
2018-12-20T00:50:16.571Z,9.17
2018-12-20T00:52:45.113Z,9.83
2018-12-20T00:55:13.715Z,8.57
2018-12-20T00:57:42.183Z,9.20
2018-12-20T01:00:11.878Z,7.53
2018-12-20T01:02:40.537Z,8.40
2018-12-20T01:05:09.056Z,9.87
2018-12-20T01:07:37.537Z,8.63
2018-12-20T01:10:06.447Z,8.43
2018-12-20T01:12:34.887Z,9.23
2018-12-20T01:15:03.470Z,8.87
2018-12-20T01:17:37.263Z,8.87
2018-12-20T01:20:06.335Z,8.70
2018-12-20T01:22:34.832Z,9.40
2018-12-20T01:25:03.587Z,9.93
2018-12-20T01:27:32.555Z,8.40
2018-12-20T01:30:01.067Z,9.03
2018-12-20T01:32:29.567Z,6.87
2018-12-20T01:34:57.932Z,8.60
2018-12-20T01:37:26.345Z,6.77
2018-12-20T01:39:55.008Z,7.47
2018-12-20T01:42:23.455Z,7.70
2018-12-20T01:44:53.585Z,9.63
2018-12-20T01:47:22.839Z,6.33
2018-12-20T01:49:51.371Z,6.50
2018-12-20T01:52:20.300Z,5.40
2018-12-20T01:54:48.755Z,8.03
2018-12-20T01:57:17.661Z,5.73
2018-12-20T01:59:46.123Z,6.50
2018-12-20T02:02:14.721Z,4.67
2018-12-20T02:04:43.191Z,7.63
2018-12-20T02:07:11.739Z,6.03
2018-12-20T02:09:40.344Z,7.53
2018-12-20T02:12:08.837Z,5.10
2018-12-20T02:14:37.317Z,5.90
2018-12-20T02:17:05.830Z,5.97
2018-12-20T02:19:34.331Z,6.57
2018-12-20T02:22:02.810Z,3.97
2018-12-20T02:24:31.384Z,7.30
2018-12-20T02:26:59.805Z,4.87
2018-12-20T02:29:28.544Z,5.20
2018-12-20T02:31:59.511Z,8.40
2018-12-20T02:34:28.033Z,8.40
2018-12-20T02:36:56.672Z,4.67
2018-12-20T02:39:25.103Z,5.77
2018-12-20T02:41:53.628Z,6.80
2018-12-20T02:44:22.255Z,6.50
2018-12-20T02:46:50.735Z,5.73
2018-12-20T02:49:19.346Z,5.43
2018-12-20T02:51:47.927Z,4.70
2018-12-20T02:54:16.341Z,8.60
2018-12-20T02:56:44.762Z,5.83
2018-12-20T02:59:13.167Z,5.07
2018-12-20T03:01:41.756Z,4.97
2018-12-20T03:04:10.380Z,4.37
2018-12-20T03:06:39.571Z,4.17
2018-12-20T03:09:09.041Z,4.13
2018-12-20T03:11:37.471Z,3.80
2018-12-20T03:14:06.283Z,4.07
2018-12-20T03:16:35.228Z,7.00
2018-12-20T03:19:04.073Z,3.73
2018-12-20T03:21:32.859Z,6.97
2018-12-20T03:24:01.321Z,3.87
2018-12-20T03:26:29.791Z,3.63
2018-12-20T03:28:58.459Z,4.77
2018-12-20T03:31:27.254Z,4.97
2018-12-20T03:33:55.703Z,4.67
2018-12-20T03:36:24.125Z,3.03
2018-12-20T03:38:52.747Z,3.57
2018-12-20T03:41:21.361Z,3.47
2018-12-20T03:43:50.005Z,3.77
2018-12-20T03:46:18.445Z,3.13
2018-12-20T03:48:46.953Z,6.10
2018-12-20T03:51:15.655Z,5.20
2018-12-20T03:53:44.860Z,3.20
2018-12-20T03:56:13.365Z,2.80
2018-12-20T03:58:42.130Z,3.10
2018-12-20T04:01:10.516Z,3.93
2018-12-20T04:03:38.958Z,3.13
2018-12-20T04:06:07.412Z,3.90
2018-12-20T04:08:35.871Z,2.53
2018-12-20T04:11:04.351Z,3.37
2018-12-20T04:13:32.735Z,3.50
2018-12-20T04:16:02.160Z,4.63
2018-12-20T04:18:30.957Z,3.33
2018-12-20T04:20:59.566Z,3.10
2018-12-20T04:23:28.066Z,4.27
2018-12-20T04:25:56.492Z,2.63
2018-12-20T04:28:32.685Z,3.77
2018-12-20T04:31:01.376Z,2.73
2018-12-20T04:33:30.148Z,4.17
2018-12-20T04:35:58.611Z,3.60
2018-12-20T04:38:27.100Z,3.83
2018-12-20T04:40:55.512Z,3.93
2018-12-20T04:43:24.047Z,5.20
2018-12-20T04:45:52.526Z,3.30
2018-12-20T04:48:22.603Z,4.37
2018-12-20T04:50:51.038Z,4.53
2018-12-20T04:53:19.655Z,7.40
2018-12-20T04:55:48.286Z,5.93
2018-12-20T04:58:16.706Z,4.37
2018-12-20T05:00:45.329Z,2.60
2018-12-20T05:03:13.847Z,4.27
2018-12-20T05:05:42.319Z,2.47
2018-12-20T05:08:10.912Z,2.23
2018-12-20T05:10:39.569Z,2.00
2018-12-20T05:13:08.054Z,2.10
2018-12-20T05:15:36.459Z,2.00
2018-12-20T05:18:04.989Z,4.53
2018-12-20T05:20:33.646Z,4.07
2018-12-20T05:23:02.139Z,1.70
2018-12-20T05:25:30.591Z,1.30
2018-12-20T05:27:59.006Z,2.23
2018-12-20T05:30:27.419Z,1.50
2018-12-20T05:32:55.812Z,1.40
2018-12-20T05:35:24.291Z,1.23
2018-12-20T05:37:52.709Z,3.10
2018-12-20T05:40:21.321Z,0.60
2018-12-20T05:42:50.076Z,1.33
2018-12-20T05:45:18.625Z,0.77
2018-12-20T05:47:47.218Z,1.37
2018-12-20T05:50:15.672Z,1.53
2018-12-20T05:52:44.051Z,1.00
2018-12-20T05:55:12.732Z,1.67
2018-12-20T05:57:41.131Z,0.80
2018-12-20T06:00:10.454Z,0.70
2018-12-20T06:02:40.057Z,2.23
2018-12-20T06:05:08.771Z,0.90
2018-12-20T06:07:37.355Z,0.70
2018-12-20T06:10:05.954Z,0.87
2018-12-20T06:12:34.512Z,2.00
2018-12-20T06:15:03.701Z,5.07
2018-12-20T06:17:32.313Z,1.60
2018-12-20T06:20:00.755Z,1.57
2018-12-20T06:22:29.138Z,2.07
2018-12-20T06:24:57.531Z,2.03
2018-12-20T06:27:25.884Z,0.80
2018-12-20T06:29:54.268Z,1.30
2018-12-20T06:32:22.631Z,1.93
2018-12-20T06:34:51.007Z,2.53
2018-12-20T06:37:19.390Z,3.30
2018-12-20T06:39:47.772Z,0.83
2018-12-20T06:42:16.176Z,2.30
2018-12-20T06:44:44.620Z,3.93
2018-12-20T06:47:13.639Z,1.00
2018-12-20T06:49:42.104Z,2.90
2018-12-20T06:52:10.471Z,3.23
2018-12-20T06:54:38.873Z,2.53
2018-12-20T06:57:07.237Z,1.97
2018-12-20T06:59:35.702Z,1.70
2018-12-20T07:02:04.071Z,2.63
2018-12-20T07:04:32.452Z,2.57
2018-12-20T07:07:00.808Z,2.03
2018-12-20T07:09:29.208Z,5.07
2018-12-20T07:11:57.564Z,2.50
2018-12-20T07:14:25.948Z,2.03
2018-12-20T07:16:54.354Z,2.73
2018-12-20T07:19:22.751Z,4.43
2018-12-20T07:21:51.219Z,2.67
2018-12-20T07:24:19.591Z,4.57
2018-12-20T07:26:47.989Z,4.17
2018-12-20T07:29:16.366Z,3.33
2018-12-20T07:31:44.770Z,2.13
2018-12-20T07:34:13.459Z,2.37
2018-12-20T07:36:42.317Z,4.07
2018-12-20T07:39:10.754Z,6.13
2018-12-20T07:41:39.115Z,3.60
2018-12-20T07:44:07.495Z,3.90
2018-12-20T07:46:53.285Z,4.80
2018-12-20T07:49:21.779Z,4.77
2018-12-20T07:51:50.149Z,7.20
2018-12-20T07:54:18.608Z,6.43
2018-12-20T07:56:47.064Z,6.47
2018-12-20T07:59:23.365Z,4.53
2018-12-20T08:01:45.900Z,7.13
2018-12-20T08:04:14.436Z,7.80
2018-12-20T08:06:42.811Z,4.47
2018-12-20T08:09:11.198Z,4.90
2018-12-20T08:11:39.568Z,3.97
2018-12-20T08:14:07.986Z,5.73
2018-12-20T08:16:36.377Z,3.00
2018-12-20T08:19:04.889Z,9.20
2018-12-20T08:21:33.251Z,5.47
2018-12-20T08:24:01.643Z,4.10
2018-12-20T08:26:30.049Z,4.37
2018-12-20T08:28:58.459Z,3.43
2018-12-20T08:31:26.855Z,6.17
2018-12-20T08:33:55.242Z,3.17
2018-12-20T08:36:23.672Z,4.17
2018-12-20T08:38:52.228Z,4.23
2018-12-20T08:41:20.603Z,7.27
2018-12-20T08:43:48.979Z,4.27
2018-12-20T08:46:17.388Z,5.07
2018-12-20T08:48:45.773Z,6.00
2018-12-20T08:51:14.143Z,2.90
2018-12-20T08:53:42.502Z,2.33
2018-12-20T08:56:10.879Z,4.40
2018-12-20T08:58:39.445Z,1.33
2018-12-20T09:01:07.831Z,4.10
2018-12-20T09:03:36.219Z,2.97
2018-12-20T09:06:04.631Z,2.50
2018-12-20T09:08:32.996Z,2.80
2018-12-20T09:11:01.387Z,2.60
2018-12-20T09:13:29.781Z,2.60
2018-12-20T09:15:58.180Z,3.47
2018-12-20T09:18:26.616Z,1.80
2018-12-20T09:20:55.017Z,3.30
2018-12-20T09:23:23.396Z,1.97
2018-12-20T09:25:51.827Z,3.43
2018-12-20T09:28:20.190Z,1.57
2018-12-20T09:30:48.571Z,2.53
2018-12-20T09:33:16.933Z,2.93
2018-12-20T09:35:45.414Z,2.50
2018-12-20T09:38:13.852Z,3.90
2018-12-20T09:40:42.245Z,1.33
2018-12-20T09:43:10.603Z,1.00
2018-12-20T09:45:39.029Z,2.10
2018-12-20T09:48:07.469Z,0.63
2018-12-20T09:50:35.876Z,1.93
2018-12-20T09:53:04.628Z,1.00
2018-12-20T09:55:33.048Z,1.50
2018-12-20T09:58:01.410Z,0.73
2018-12-20T10:00:29.785Z,0.73
2018-12-20T10:02:58.170Z,0.70
2018-12-20T10:05:26.562Z,2.47
2018-12-20T10:07:55.100Z,1.03
2018-12-20T10:10:23.488Z,1.53
2018-12-20T10:12:51.853Z,0.87
2018-12-20T10:15:20.279Z,0.77
2018-12-20T10:17:49.455Z,1.53
2018-12-20T10:20:17.823Z,1.87
2018-12-20T10:22:46.185Z,1.80
2018-12-20T10:25:14.791Z,1.30
2018-12-20T10:27:43.216Z,3.10
2018-12-20T10:30:11.715Z,1.37
2018-12-20T10:32:40.112Z,1.30
2018-12-20T10:35:08.582Z,1.50
2018-12-20T10:37:36.979Z,1.13
2018-12-20T10:40:05.961Z,1.23
2018-12-20T10:42:34.372Z,3.53
2018-12-20T10:45:02.820Z,1.20
2018-12-20T10:47:31.216Z,0.80
2018-12-20T10:49:59.608Z,1.47
2018-12-20T10:52:28.111Z,2.23
2018-12-20T10:54:56.496Z,1.97
2018-12-20T10:57:24.937Z,2.07
2018-12-20T10:59:53.519Z,1.73
2018-12-20T11:02:27.269Z,3.23
2018-12-20T11:05:06.809Z,2.60
2018-12-20T11:07:40.498Z,2.87
2018-12-20T11:10:15.130Z,2.50
2018-12-20T11:12:48.887Z,2.43
2018-12-20T11:15:17.711Z,6.90
2018-12-20T11:17:46.189Z,4.63
2018-12-20T11:20:14.696Z,3.73
2018-12-20T11:22:43.195Z,5.40
2018-12-20T11:25:11.807Z,6.70
2018-12-20T11:27:40.180Z,2.63
2018-12-20T11:30:10.512Z,1.73
2018-12-20T11:32:38.967Z,4.47
2018-12-20T11:35:08.268Z,3.80
2018-12-20T11:37:37.374Z,1.43
2018-12-20T11:40:06.927Z,2.37
2018-12-20T11:42:35.315Z,1.43
2018-12-20T11:45:03.807Z,1.67
2018-12-20T11:47:32.218Z,0.80
2018-12-20T11:50:00.601Z,3.13
2018-12-20T11:52:28.977Z,0.60
2018-12-20T11:54:57.355Z,0.90
2018-12-20T11:57:25.783Z,0.97
2018-12-20T11:59:54.163Z,1.77
2018-12-20T12:02:24.577Z,0.37
2018-12-20T12:04:52.939Z,0.80
2018-12-20T12:07:21.457Z,1.60
2018-12-20T12:09:49.960Z,1.30
2018-12-20T12:12:18.514Z,0.97
2018-12-20T12:14:46.892Z,0.57
2018-12-20T12:17:15.307Z,1.90
2018-12-20T12:19:43.692Z,2.47
2018-12-20T12:22:12.155Z,0.80
2018-12-20T12:24:40.551Z,2.17
2018-12-20T12:27:08.926Z,1.40
2018-12-20T12:29:37.351Z,0.87
2018-12-20T12:32:05.711Z,1.40
2018-12-20T12:34:34.238Z,1.07
2018-12-20T12:37:02.631Z,2.57
2018-12-20T12:39:31.058Z,0.90
2018-12-20T12:41:59.462Z,2.50
2018-12-20T12:44:27.839Z,2.20
2018-12-20T12:46:56.217Z,3.00
2018-12-20T12:49:24.611Z,2.93
2018-12-20T12:51:53.549Z,4.10
2018-12-20T12:54:22.131Z,1.57
2018-12-20T12:56:50.499Z,3.63
2018-12-20T12:59:18.907Z,4.23
2018-12-20T13:01:47.271Z,2.57
2018-12-20T13:04:15.659Z,4.33
2018-12-20T13:06:44.062Z,1.93
2018-12-20T13:09:12.476Z,3.77
2018-12-20T13:11:40.849Z,4.70
2018-12-20T13:14:09.239Z,3.83
2018-12-20T13:16:37.623Z,5.33
2018-12-20T13:19:06.114Z,6.47
2018-12-20T13:21:34.575Z,3.87
2018-12-20T13:24:03.154Z,4.30
2018-12-20T13:26:31.513Z,3.67
2018-12-20T13:28:59.902Z,4.07
2018-12-20T13:31:28.265Z,3.73
2018-12-20T13:33:56.636Z,3.37
2018-12-20T13:36:25.039Z,3.87
2018-12-20T13:38:53.432Z,4.17
2018-12-20T13:41:21.810Z,5.10
2018-12-20T13:43:50.195Z,6.70
2018-12-20T13:46:18.612Z,5.03
2018-12-20T13:48:46.963Z,3.67
2018-12-20T13:51:15.383Z,5.03
2018-12-20T13:53:43.937Z,7.30
2018-12-20T13:56:12.349Z,5.43
2018-12-20T13:58:40.707Z,7.87
2018-12-20T14:01:09.084Z,6.87
2018-12-20T14:03:37.440Z,7.83
2018-12-20T14:06:05.823Z,6.80
2018-12-20T14:08:34.259Z,3.30
2018-12-20T14:11:02.808Z,2.90
2018-12-20T14:13:31.163Z,2.40
2018-12-20T14:15:59.555Z,7.37
2018-12-20T14:18:31.143Z,3.43
2018-12-20T14:20:58.454Z,3.60
2018-12-20T14:23:26.837Z,1.30
2018-12-20T14:25:55.300Z,3.10
2018-12-20T14:28:23.684Z,3.37
2018-12-20T14:30:52.070Z,4.17
2018-12-20T14:33:20.456Z,2.43
2018-12-20T14:35:48.857Z,3.17
2018-12-20T14:38:17.232Z,4.07
2018-12-20T14:40:45.606Z,1.73
2018-12-20T14:43:13.984Z,4.47
2018-12-20T14:45:42.377Z,4.83
2018-12-20T14:48:12.756Z,4.90
2018-12-20T14:50:41.140Z,10.73
2018-12-20T14:53:09.527Z,3.37
2018-12-20T14:55:37.907Z,4.17
2018-12-20T14:58:06.288Z,3.93
2018-12-20T15:00:34.719Z,4.07
2018-12-20T15:03:03.111Z,5.07
2018-12-20T15:05:31.483Z,3.90
2018-12-20T15:07:59.864Z,3.90
2018-12-20T15:10:28.303Z,3.50
2018-12-20T15:12:56.719Z,5.60
2018-12-20T15:15:25.162Z,5.00
2018-12-20T15:17:53.642Z,4.07
2018-12-20T15:20:22.040Z,5.07
2018-12-20T15:22:50.421Z,5.67
2018-12-20T15:25:18.902Z,5.60
2018-12-20T15:27:47.315Z,3.07
2018-12-20T15:30:15.728Z,2.63
2018-12-20T15:32:44.124Z,3.80
2018-12-20T15:35:12.532Z,3.80
2018-12-20T15:37:40.931Z,4.27
2018-12-20T15:40:10.001Z,2.93
2018-12-20T15:42:38.786Z,5.97
2018-12-20T15:45:08.572Z,4.00
2018-12-20T15:47:37.015Z,5.10
2018-12-20T15:50:06.763Z,5.67
2018-12-20T15:52:35.147Z,5.47
2018-12-20T15:55:03.708Z,3.37
2018-12-20T15:57:32.112Z,4.27
2018-12-20T16:00:00.489Z,4.03
2018-12-20T16:02:28.919Z,2.67
2018-12-20T16:04:57.304Z,2.50
2018-12-20T16:07:25.695Z,4.07
2018-12-20T16:09:54.043Z,7.87
2018-12-20T16:12:22.439Z,3.70
2018-12-20T16:14:50.895Z,5.90
2018-12-20T16:17:19.297Z,3.87
2018-12-20T16:19:47.663Z,6.23
2018-12-20T16:22:16.027Z,4.60
2018-12-20T16:24:44.416Z,5.90
2018-12-20T16:27:12.788Z,5.93
2018-12-20T16:29:41.447Z,4.60
2018-12-20T16:32:09.816Z,8.50
2018-12-20T16:34:38.288Z,3.00
2018-12-20T16:37:06.691Z,3.77
2018-12-20T16:39:35.096Z,3.63
2018-12-20T16:42:03.605Z,4.57
2018-12-20T16:44:32.027Z,5.83
2018-12-20T16:47:00.403Z,5.97
2018-12-20T16:49:28.796Z,8.17
2018-12-20T16:51:57.152Z,6.43
2018-12-20T16:54:25.636Z,6.77
2018-12-20T16:56:54.019Z,3.57
2018-12-20T16:59:22.405Z,7.17
2018-12-20T17:01:50.773Z,6.53
2018-12-20T17:04:19.167Z,3.73
2018-12-20T17:06:48.139Z,3.83
2018-12-20T17:09:16.741Z,4.67
2018-12-20T17:11:45.204Z,4.40
2018-12-20T17:14:13.628Z,3.30
2018-12-20T17:16:42.035Z,5.67
2018-12-20T17:19:10.420Z,4.33
2018-12-20T17:21:38.867Z,4.23
2018-12-20T17:24:07.253Z,6.67
2018-12-20T17:33:33.888Z,4.70
2018-12-20T17:36:02.415Z,5.67
2018-12-20T17:38:30.808Z,6.47
2018-12-20T17:40:59.192Z,3.13
2018-12-20T17:43:34.256Z,2.50
2018-12-20T17:46:02.680Z,5.77
2018-12-20T17:48:31.083Z,5.47
2018-12-20T17:50:59.458Z,4.50
2018-12-20T17:53:28.247Z,5.70
2018-12-20T17:55:56.615Z,6.27
2018-12-20T17:58:25.048Z,6.70
2018-12-20T18:00:53.447Z,5.37
2018-12-20T18:03:21.918Z,6.07
2018-12-20T18:05:50.423Z,5.27
2018-12-20T18:08:18.808Z,4.40
2018-12-20T18:10:47.453Z,5.67
2018-12-20T18:13:15.924Z,6.60
2018-12-20T18:15:44.351Z,6.77
2018-12-20T18:18:12.806Z,7.07
2018-12-20T18:20:41.215Z,6.93
2018-12-20T18:23:09.605Z,7.80
2018-12-20T18:25:38.064Z,8.13
2018-12-20T18:28:06.443Z,5.20
2018-12-20T18:30:34.843Z,5.13
2018-12-20T18:33:03.247Z,3.57
2018-12-20T18:35:31.683Z,4.43
2018-12-20T18:38:00.055Z,5.80
2018-12-20T18:40:28.463Z,3.80
2018-12-20T18:42:56.877Z,3.90
2018-12-20T18:45:25.340Z,4.50
2018-12-20T18:47:53.789Z,4.83
2018-12-20T18:50:22.279Z,3.50
2018-12-20T18:52:50.780Z,4.90
2018-12-20T18:55:19.286Z,5.40
2018-12-20T18:57:48.240Z,4.23
2018-12-20T19:00:16.728Z,4.07
2018-12-20T19:02:45.115Z,6.50
2018-12-20T19:05:13.542Z,6.63
2018-12-20T19:07:49.851Z,4.97
2018-12-20T19:10:18.925Z,9.27
2018-12-20T19:12:47.720Z,5.07
2018-12-20T19:15:16.579Z,5.47
2018-12-20T19:17:45.408Z,5.00
2018-12-20T19:20:16.388Z,8.47
2018-12-20T19:22:46.218Z,6.00
2018-12-20T19:25:15.215Z,7.33
2018-12-20T19:27:44.858Z,4.27
2018-12-20T19:30:13.576Z,3.27
2018-12-20T19:32:42.370Z,4.40
2018-12-20T19:35:10.776Z,3.90
2018-12-20T19:37:39.914Z,3.10
2018-12-20T19:40:11.047Z,4.63
2018-12-20T19:42:39.904Z,2.57
2018-12-20T19:45:08.803Z,4.53
2018-12-20T19:47:37.739Z,2.90
2018-12-20T19:50:08.261Z,5.03
2018-12-20T19:52:36.641Z,5.43
2018-12-20T19:55:06.877Z,4.40
2018-12-20T19:57:35.307Z,5.77
2018-12-20T20:00:06.326Z,9.87
2018-12-20T20:02:35.168Z,4.17
2018-12-20T20:05:04.341Z,4.50
2018-12-20T20:07:32.780Z,4.03
2018-12-20T20:10:01.350Z,8.47
2018-12-20T20:12:29.758Z,6.07
2018-12-20T20:14:58.158Z,4.37
2018-12-20T20:17:26.592Z,4.73
2018-12-20T20:19:59.715Z,6.10
2018-12-20T20:22:25.972Z,5.30
2018-12-20T20:24:54.382Z,6.00
2018-12-20T20:27:22.780Z,7.53
2018-12-20T20:29:51.166Z,4.83
2018-12-20T20:32:19.883Z,7.83
2018-12-20T20:34:48.275Z,4.33
2018-12-20T20:37:16.765Z,4.20
2018-12-20T20:39:45.277Z,6.07
2018-12-20T20:42:13.741Z,5.17
2018-12-20T20:44:42.627Z,6.97
2018-12-20T20:47:12.096Z,3.90
2018-12-20T20:49:40.483Z,5.43
2018-12-20T20:52:08.975Z,2.40
2018-12-20T20:54:37.424Z,4.50
2018-12-20T20:57:05.882Z,5.50
2018-12-20T20:59:34.335Z,4.90
2018-12-20T21:02:02.800Z,4.67
2018-12-20T21:04:31.719Z,6.57
2018-12-20T21:07:00.547Z,5.47
2018-12-20T21:09:30.604Z,10.70
2018-12-20T21:11:59.248Z,5.30
2018-12-20T21:14:28.643Z,8.30
2018-12-20T21:16:57.120Z,5.33
2018-12-20T21:19:25.608Z,4.77
2018-12-20T21:21:54.259Z,5.70
2018-12-20T21:24:22.791Z,6.70
2018-12-20T21:26:51.223Z,7.57
2018-12-20T21:29:19.668Z,6.30
2018-12-20T21:31:48.098Z,6.57
2018-12-20T21:34:16.500Z,5.17
2018-12-20T21:36:45.105Z,6.60
2018-12-20T21:39:13.515Z,5.57
2018-12-20T21:41:41.933Z,7.30
2018-12-20T21:44:10.353Z,3.80
2018-12-20T21:46:38.936Z,5.00
2018-12-20T21:49:07.323Z,8.30
2018-12-20T21:51:35.755Z,5.30
2018-12-20T21:54:04.199Z,7.10
2018-12-20T21:56:32.660Z,3.67
2018-12-20T21:59:01.047Z,8.30
2018-12-20T22:01:29.516Z,5.27
2018-12-20T22:03:57.902Z,5.73
2018-12-20T22:06:26.334Z,8.13
2018-12-20T22:08:54.827Z,6.03
2018-12-20T22:11:23.210Z,8.23
2018-12-20T22:13:51.866Z,5.20
2018-12-20T22:16:20.315Z,5.87
2018-12-20T22:18:48.706Z,5.00
2018-12-20T22:21:17.255Z,4.63
2018-12-20T22:23:45.765Z,5.57
2018-12-20T22:26:14.199Z,4.83
2018-12-20T22:28:42.724Z,5.83
2018-12-20T22:31:11.088Z,8.33
2018-12-20T22:33:39.507Z,4.70
2018-12-20T22:36:07.923Z,4.63
2018-12-20T22:38:36.323Z,3.87
2018-12-20T22:41:04.743Z,3.43
2018-12-20T22:43:33.172Z,4.93
2018-12-20T22:46:01.597Z,4.57
2018-12-20T22:48:30.016Z,4.47
2018-12-20T22:50:58.413Z,4.47
2018-12-20T22:53:26.812Z,5.97
2018-12-20T22:55:55.215Z,5.70
2018-12-20T22:58:23.643Z,2.30
2018-12-20T23:00:54.239Z,3.33
2018-12-20T23:03:22.991Z,3.93
2018-12-20T23:05:51.359Z,2.83
2018-12-20T23:08:19.829Z,2.57
2018-12-20T23:10:48.222Z,2.93
2018-12-20T23:13:16.613Z,2.83
2018-12-20T23:15:45.059Z,4.00
2018-12-20T23:18:13.500Z,5.63
2018-12-20T23:20:41.924Z,2.43
2018-12-20T23:23:10.406Z,4.57
2018-12-20T23:25:38.868Z,4.53
2018-12-20T23:28:07.292Z,3.60
2018-12-20T23:30:35.667Z,3.77
2018-12-20T23:33:04.061Z,1.63
2018-12-20T23:35:32.465Z,5.10
2018-12-20T23:38:00.876Z,2.07
2018-12-20T23:40:29.233Z,5.27
2018-12-20T23:42:57.637Z,3.73
2018-12-20T23:45:26.038Z,3.90
2018-12-20T23:47:54.419Z,2.73
2018-12-20T23:50:22.797Z,2.83
2018-12-20T23:52:51.198Z,4.93
2018-12-20T23:55:19.616Z,4.10
2018-12-20T23:57:47.996Z,3.40
